Time;durP1;ratioP1;P1;durP2;ratioP2;P2;SDS_P1;SDS_P2;PMS_P1;PMS_P2;Temp;Humidity;BMP_temperature;BMP_pressure;BME280_temperature;BME280_humidity;BME280_pressure;Samples;Min_cycle;Max_cycle;Signal;HPM_P1;HPM_P2
2021/09/28 00:01:38;;;;;;;12.63;8.02;;;537.60;2406.40;;;;;;4994749;28;20026;-84
2021/09/28 00:04:04;;;;;;;15.48;7.85;;;512.90;2380.80;;;;;;4994803;28;20121;-84
2021/09/28 00:06:30;;;;;;;10.48;7.25;;;512.70;2380.80;;;;;;4994651;28;20030;-83
2021/09/28 00:08:56;;;;;;;11.27;8.27;;;512.60;2380.80;;;;;;4994885;28;20346;-84
2021/09/28 00:11:23;;;;;;;17.58;8.00;;;512.60;2380.80;;;;;;4994893;28;20023;-85
2021/09/28 00:13:48;;;;;;;12.25;8.20;;;512.50;2380.80;;;;;;4994572;28;20034;-84
2021/09/28 00:16:14;;;;;;;11.45;8.27;;;512.30;2380.80;;;;;;4994854;28;20030;-85
2021/09/28 00:18:40;;;;;;;11.75;8.02;;;512.30;2380.80;;;;;;4994674;28;20426;-84
2021/09/28 00:21:06;;;;;;;17.98;7.78;;;512.50;2380.80;;;;;;4994468;28;20121;-84
2021/09/28 00:23:32;;;;;;;10.43;7.65;;;512.60;2380.80;;;;;;4994576;28;20066;-83
2021/09/28 00:25:57;;;;;;;14.73;8.43;;;512.70;2380.80;;;;;;4994377;28;20030;-84
2021/09/28 00:28:28;;;;;;;11.80;7.18;;;512.60;2380.80;;;;;;4994228;28;20398;-83
2021/09/28 00:30:55;;;;;;;11.40;7.40;;;512.60;2380.80;;;;;;4994512;28;20027;-84
2021/09/28 00:33:21;;;;;;;13.48;8.27;;;512.70;2380.80;;;;;;4994285;28;20034;-84
2021/09/28 00:35:47;;;;;;;13.40;7.97;;;512.50;2380.80;;;;;;4994249;28;20057;-85
2021/09/28 00:38:14;;;;;;;9.73;7.35;;;512.50;2380.80;;;;;;4994583;28;20078;-85
2021/09/28 00:40:39;;;;;;;9.45;7.30;;;512.60;2380.80;;;;;;4994159;28;20033;-85
2021/09/28 00:43:05;;;;;;;10.95;7.25;;;512.50;2380.80;;;;;;4994044;28;20117;-84
2021/09/28 00:45:31;;;;;;;12.50;7.45;;;512.60;2380.80;;;;;;4995396;28;20466;-84
2021/09/28 00:47:57;;;;;;;14.30;7.50;;;512.60;2380.80;;;;;;4993813;28;20121;-84
2021/09/28 00:50:23;;;;;;;13.98;7.47;;;512.40;2380.80;;;;;;4994131;28;20026;-85
2021/09/28 00:52:50;;;;;;;15.18;7.53;;;512.20;2380.80;;;;;;4995171;28;20050;-85
2021/09/28 00:55:17;;;;;;;12.23;7.03;;;512.20;2380.80;;;;;;4995126;28;20026;-84
2021/09/28 00:57:43;;;;;;;10.40;7.25;;;512.20;2380.80;;;;;;4993771;28;20030;-84
2021/09/28 01:00:10;;;;;;;12.93;7.72;;;512.20;2380.80;;;;;;4994032;28;20027;-84
2021/09/28 01:02:40;;;;;;;10.43;7.63;;;512.10;2380.80;;;;;;4993608;28;20089;-84
2021/09/28 01:05:08;;;;;;;12.65;8.18;;;487.10;2380.80;;;;;;4993882;28;20410;-84
2021/09/28 01:07:33;;;;;;;13.20;8.73;;;512.10;2380.80;;;;;;4993755;28;20030;-84
2021/09/28 01:09:59;;;;;;;15.20;8.57;;;512.10;2380.80;;;;;;4993467;28;20023;-84
2021/09/28 01:12:25;;;;;;;13.52;8.60;;;512.10;2380.80;;;;;;4993781;28;20071;-84
2021/09/28 01:14:52;;;;;;;15.75;8.55;;;512.00;2380.80;;;;;;4993757;28;20390;-84
2021/09/28 01:17:19;;;;;;;14.98;7.65;;;512.30;2380.80;;;;;;4993940;28;20117;-85
2021/09/28 01:19:45;;;;;;;16.27;8.55;;;487.20;2380.80;;;;;;4993824;28;20033;-84
2021/09/28 01:22:14;;;;;;;15.63;8.80;;;461.60;2380.80;;;;;;4993871;28;20030;-84
2021/09/28 01:24:41;;;;;;;15.40;8.55;;;487.30;2380.80;;;;;;4994347;28;20030;-84
2021/09/28 01:27:07;;;;;;;16.67;9.23;;;487.20;2380.80;;;;;;4993930;28;20027;-85
2021/09/28 01:29:33;;;;;;;11.95;8.15;;;487.10;2380.80;;;;;;4990369;28;20050;-85
2021/09/28 01:32:00;;;;;;;16.83;9.00;;;487.10;2380.80;;;;;;4990378;28;20046;-84
2021/09/28 01:34:25;;;;;;;11.80;8.27;;;487.10;2380.80;;;;;;4990155;28;20134;-84
2021/09/28 01:36:51;;;;;;;12.88;8.32;;;487.10;2380.80;;;;;;4990080;28;20110;-85
2021/09/28 01:39:19;;;;;;;16.27;9.23;;;487.10;2380.80;;;;;;4990461;28;20425;-85
2021/09/28 01:41:45;;;;;;;15.43;9.02;;;487.00;2380.80;;;;;;4990211;28;20114;-85
2021/09/28 01:44:14;;;;;;;11.13;8.02;;;486.90;2380.80;;;;;;4975143;28;20110;-85
2021/09/28 01:46:42;;;;;;;11.80;7.97;;;486.70;2380.80;;;;;;4974255;28;20117;-84
2021/09/28 01:49:09;;;;;;;12.27;8.45;;;486.80;2380.80;;;;;;4974268;28;20026;-84
2021/09/28 01:51:36;;;;;;;13.23;8.27;;;486.80;2380.80;;;;;;4990171;28;20117;-84
2021/09/28 01:54:02;;;;;;;15.45;8.30;;;486.90;2380.80;;;;;;4990319;28;20035;-85
2021/09/28 01:56:28;;;;;;;14.57;8.77;;;486.90;2380.80;;;;;;4974162;28;20034;-85
2021/09/28 01:58:56;;;;;;;16.15;9.45;;;486.80;2380.80;;;;;;4989975;28;20030;-85
2021/09/28 02:01:22;;;;;;;15.07;8.82;;;486.90;2380.80;;;;;;4989878;28;20089;-85
2021/09/28 02:03:48;;;;;;;16.58;9.75;;;487.00;2380.80;;;;;;4989782;28;20086;-85
2021/09/28 02:06:19;;;;;;;13.70;8.48;;;486.90;2380.80;;;;;;4990021;28;20031;-84
2021/09/28 02:08:45;;;;;;;16.50;8.70;;;487.00;2380.80;;;;;;4990024;28;20382;-85
2021/09/28 02:11:11;;;;;;;16.00;9.60;;;486.90;2380.80;;;;;;4992515;28;20023;-85
2021/09/28 02:13:37;;;;;;;17.10;10.13;;;486.70;2380.80;;;;;;4977197;28;20046;-85
2021/09/28 02:16:03;;;;;;;16.52;9.60;;;486.80;2380.80;;;;;;4978432;28;20037;-85
2021/09/28 02:18:29;;;;;;;11.77;7.65;;;486.80;2380.80;;;;;;4978633;28;20418;-85
2021/09/28 02:20:56;;;;;;;12.70;9.00;;;486.80;2380.80;;;;;;4996692;28;20030;-84
2021/09/28 02:23:22;;;;;;;14.85;9.35;;;486.80;2380.80;;;;;;4996810;28;20125;-85
2021/09/28 02:25:47;;;;;;;13.60;9.60;;;486.80;2380.80;;;;;;4996569;28;20069;-84
2021/09/28 02:28:13;;;;;;;12.00;9.02;;;486.80;2380.80;;;;;;4997461;28;20081;-85
2021/09/28 02:30:40;;;;;;;14.07;9.35;;;486.70;2380.80;;;;;;4980371;28;20030;-85
2021/09/28 02:33:06;;;;;;;15.18;9.45;;;486.70;2380.80;;;;;;4996646;28;20125;-84
2021/09/28 02:35:32;;;;;;;19.15;9.88;;;486.70;2380.80;;;;;;4996491;28;20466;-84
2021/09/28 02:37:59;;;;;;;15.18;9.30;;;486.70;2380.80;;;;;;4996501;28;20124;-85
2021/09/28 02:40:26;;;;;;;14.77;9.18;;;486.50;2380.80;;;;;;4996119;28;20477;-84
2021/09/28 02:42:53;;;;;;;12.35;9.10;;;486.40;2380.80;;;;;;4996329;28;20030;-84
2021/09/28 02:45:20;;;;;;;16.95;8.82;;;486.40;2380.80;;;;;;4996422;28;20026;-83
2021/09/28 02:47:45;;;;;;;14.98;9.55;;;486.40;2380.80;;;;;;4995996;28;20069;-84
2021/09/28 02:50:12;;;;;;;12.80;9.95;;;486.50;2380.80;;;;;;4996174;28;20030;-84
2021/09/28 02:52:38;;;;;;;17.75;10.02;;;486.50;2380.80;;;;;;4997221;28;20034;-84
2021/09/28 02:55:05;;;;;;;17.42;10.13;;;486.40;2380.80;;;;;;4995955;28;20035;-84
2021/09/28 02:57:31;;;;;;;16.65;10.27;;;461.70;2380.80;;;;;;4996369;28;20026;-85
2021/09/28 02:59:57;;;;;;;15.98;9.15;;;461.70;2380.80;;;;;;4996047;28;20034;-84
2021/09/28 03:02:23;;;;;;;15.45;9.90;;;486.40;2380.80;;;;;;4996187;28;20473;-84
2021/09/28 03:04:48;;;;;;;13.38;9.43;;;486.40;2380.80;;;;;;4996991;28;20049;-85
2021/09/28 03:07:14;;;;;;;16.33;9.48;;;486.40;2380.80;;;;;;4995994;28;20462;-85
2021/09/28 03:09:40;;;;;;;15.10;9.63;;;461.70;2380.80;;;;;;4996216;28;20027;-85
2021/09/28 03:12:07;;;;;;;14.48;9.98;;;461.70;2380.80;;;;;;4995807;28;20496;-84
2021/09/28 03:14:33;;;;;;;14.25;10.35;;;461.70;2380.80;;;;;;4995628;28;20497;-85
2021/09/28 03:16:58;;;;;;;16.00;9.48;;;461.50;2380.80;;;;;;4995686;28;20030;-84
2021/09/28 03:19:24;;;;;;;14.02;9.65;;;461.50;2380.80;;;;;;4995547;28;20027;-85
2021/09/28 03:21:51;;;;;;;14.38;10.25;;;461.50;2380.80;;;;;;4994413;28;20027;-85
2021/09/28 03:24:18;;;;;;;16.42;9.55;;;461.30;2380.80;;;;;;4995787;28;20093;-85
2021/09/28 03:26:44;;;;;;;14.60;10.02;;;461.30;2380.80;;;;;;4995629;28;20034;-85
2021/09/28 03:29:10;;;;;;;12.70;9.63;;;461.20;2380.80;;;;;;4995077;28;20046;-86
2021/09/28 03:31:36;;;;;;;17.48;9.98;;;460.90;2380.80;;;;;;4995613;28;20363;-85
2021/09/28 03:34:02;;;;;;;13.88;9.75;;;461.00;2380.80;;;;;;4995678;28;20044;-85
2021/09/28 03:36:28;;;;;;;16.13;9.57;;;461.00;2380.80;;;;;;4996488;28;20061;-86
2021/09/28 03:38:54;;;;;;;13.77;10.25;;;461.10;2380.80;;;;;;4995675;28;20074;-85
2021/09/28 03:41:20;;;;;;;13.02;9.75;;;461.00;2380.80;;;;;;4995394;28;20057;-86
2021/09/28 03:43:45;;;;;;;14.98;10.50;;;461.00;2380.80;;;;;;4995241;28;20030;-85
2021/09/28 03:46:11;;;;;;;14.02;9.75;;;461.00;2380.80;;;;;;4995417;28;20083;-86
2021/09/28 03:48:37;;;;;;;16.45;10.07;;;461.00;2380.80;;;;;;4991504;28;20466;-86
2021/09/28 03:51:03;;;;;;;13.30;10.20;;;461.00;2380.80;;;;;;4995280;28;20038;-86
2021/09/28 03:53:29;;;;;;;16.00;10.35;;;460.80;2380.80;;;;;;4995360;28;20140;-85
2021/09/28 03:55:55;;;;;;;16.40;10.65;;;460.80;2380.80;;;;;;4995996;28;20438;-85
2021/09/28 03:58:21;;;;;;;13.45;10.18;;;460.80;2380.80;;;;;;4994882;28;20026;-85
2021/09/28 04:00:46;;;;;;;13.73;9.55;;;460.80;2380.80;;;;;;4995040;28;20022;-86
2021/09/28 04:03:12;;;;;;;14.65;11.43;;;460.80;2380.80;;;;;;4996148;28;20034;-86
2021/09/28 04:05:39;;;;;;;16.10;10.95;;;460.80;2380.80;;;;;;4978944;28;20468;-85
2021/09/28 04:08:06;;;;;;;15.98;10.60;;;460.80;2380.80;;;;;;4995053;28;20034;-86
2021/09/28 04:10:35;;;;;;;16.33;10.57;;;436.10;2355.20;;;;;;4994802;28;20034;-85
2021/09/28 04:13:08;;;;;;;14.85;10.52;;;435.90;2355.20;;;;;;4995986;28;20037;-86
2021/09/28 04:15:41;;;;;;;19.17;11.73;;;436.00;2355.20;;;;;;4994940;28;20545;-86
2021/09/28 04:18:12;;;;;;;14.45;10.73;;;436.10;2355.20;;;;;;4995796;28;20022;-86
2021/09/28 04:20:40;;;;;;;15.82;10.43;;;436.10;2355.20;;;;;;4978539;28;20113;-85
2021/09/28 04:23:06;;;;;;;20.88;11.52;;;436.10;2355.20;;;;;;4994881;28;20030;-85
2021/09/28 04:25:32;;;;;;;17.00;11.60;;;435.70;2355.20;;;;;;4978362;28;20084;-85
2021/09/28 04:27:58;;;;;;;21.73;13.55;;;436.10;2355.20;;;;;;4994455;28;20047;-85
2021/09/28 04:30:24;;;;;;;20.10;11.40;;;436.00;2355.20;;;;;;4994475;28;20034;-86
2021/09/28 04:32:50;;;;;;;19.83;12.80;;;436.10;2355.20;;;;;;4977819;28;20030;-86
2021/09/28 04:35:16;;;;;;;17.67;11.70;;;436.10;2355.20;;;;;;4994231;28;20030;-85
2021/09/28 04:37:42;;;;;;;18.02;11.98;;;436.10;2355.20;;;;;;4994402;28;20033;-85
2021/09/28 04:40:09;;;;;;;18.05;11.10;;;436.10;2355.20;;;;;;4994561;28;20023;-86
2021/09/28 04:42:34;;;;;;;15.50;11.70;;;460.80;2380.80;;;;;;4978286;28;20030;-86
2021/09/28 04:45:00;;;;;;;24.15;13.55;;;460.80;2380.80;;;;;;4994367;28;20126;-85
2021/09/28 04:47:26;;;;;;;21.10;12.75;;;460.80;2380.80;;;;;;4994387;28;20022;-86
2021/09/28 04:49:52;;;;;;;21.80;13.32;;;436.10;2355.20;;;;;;4994330;28;20358;-85
2021/09/28 04:52:18;;;;;;;23.00;14.82;;;460.80;2380.80;;;;;;4994152;28;20061;-86
2021/09/28 04:54:43;;;;;;;22.63;13.18;;;436.10;2355.20;;;;;;4994181;28;20502;-85
2021/09/28 04:57:09;;;;;;;18.70;12.40;;;436.10;2355.20;;;;;;4994272;28;20030;-86
2021/09/28 04:59:35;;;;;;;20.00;11.55;;;460.80;2380.80;;;;;;4978360;28;20031;-86
2021/09/28 05:02:01;;;;;;;17.67;12.02;;;460.90;2380.80;;;;;;4994126;28;20027;-85
2021/09/28 05:04:26;;;;;;;18.85;10.88;;;460.80;2380.80;;;;;;4994241;28;20061;-86
2021/09/28 05:06:52;;;;;;;23.88;12.02;;;460.90;2380.80;;;;;;4995061;28;20359;-85
2021/09/28 05:09:18;;;;;;;20.73;12.95;;;461.00;2380.80;;;;;;4994122;28;20498;-86
2021/09/28 05:11:44;;;;;;;21.88;12.80;;;461.10;2380.80;;;;;;4993924;28;20046;-86
2021/09/28 05:14:10;;;;;;;16.52;11.15;;;461.20;2380.80;;;;;;4993811;28;20129;-86
2021/09/28 05:16:35;;;;;;;17.98;12.25;;;461.30;2380.80;;;;;;4995158;28;20033;-86
2021/09/28 05:19:02;;;;;;;18.50;12.02;;;461.30;2380.80;;;;;;4994036;28;20118;-85
2021/09/28 05:21:28;;;;;;;19.75;12.77;;;461.30;2380.80;;;;;;4993508;28;20022;-85
2021/09/28 05:23:54;;;;;;;23.55;12.75;;;461.30;2380.80;;;;;;4993878;28;20512;-85
2021/09/28 05:26:20;;;;;;;23.27;13.32;;;461.30;2380.80;;;;;;4993974;28;20029;-85
2021/09/28 05:28:45;;;;;;;20.70;12.85;;;461.40;2380.80;;;;;;4993531;28;20494;-85
2021/09/28 05:31:11;;;;;;;21.50;13.10;;;461.40;2380.80;;;;;;4977589;28;20355;-85
2021/09/28 05:33:37;;;;;;;17.88;12.65;;;461.40;2380.80;;;;;;4993589;28;20042;-85
2021/09/28 05:36:04;;;;;;;19.90;12.07;;;461.50;2380.80;;;;;;4993929;28;20430;-85
2021/09/28 05:38:29;;;;;;;20.63;12.90;;;461.60;2380.80;;;;;;4993799;28;20022;-85
2021/09/28 05:40:55;;;;;;;23.90;15.38;;;461.50;2380.80;;;;;;4993645;28;20118;-85
2021/09/28 05:43:21;;;;;;;18.58;12.82;;;461.30;2380.80;;;;;;4993778;28;20054;-85
2021/09/28 05:45:47;;;;;;;24.25;14.27;;;461.40;2380.80;;;;;;4996441;28;20037;-85
2021/09/28 05:48:13;;;;;;;23.02;15.23;;;461.50;2380.80;;;;;;4997531;28;20137;-85
2021/09/28 05:50:39;;;;;;;21.80;14.48;;;461.30;2380.80;;;;;;4997671;28;20026;-85
2021/09/28 05:53:08;;;;;;;20.77;15.55;;;461.30;2380.80;;;;;;4997444;28;20054;-85
2021/09/28 05:55:36;;;;;;;22.75;14.80;;;461.40;2380.80;;;;;;4997356;28;20120;-85
2021/09/28 05:58:02;;;;;;;20.05;15.15;;;461.10;2380.80;;;;;;4997528;28;20062;-86
2021/09/28 06:00:28;;;;;;;20.83;14.43;;;461.00;2380.80;;;;;;4997378;28;20030;-86
2021/09/28 06:02:54;;;;;;;19.23;13.35;;;460.90;2380.80;;;;;;4996942;28;20038;-85
2021/09/28 06:05:22;;;;;;;19.63;13.98;;;461.00;2380.80;;;;;;4981112;28;20030;-85
2021/09/28 06:07:48;;;;;;;20.85;14.07;;;461.10;2380.80;;;;;;4997284;28;20030;-86
2021/09/28 06:10:14;;;;;;;21.00;13.82;;;461.00;2380.80;;;;;;4997116;28;20034;-86
2021/09/28 06:12:41;;;;;;;23.08;14.70;;;461.10;2380.80;;;;;;4997036;28;20037;-86
2021/09/28 06:15:07;;;;;;;23.58;14.82;;;461.10;2380.80;;;;;;4997371;28;20385;-85
2021/09/28 06:17:33;;;;;;;17.95;14.02;;;461.20;2380.80;;;;;;4997143;28;20069;-86
2021/09/28 06:19:59;;;;;;;18.17;12.88;;;461.20;2380.80;;;;;;4997142;28;20030;-85
2021/09/28 06:22:27;;;;;;;23.25;14.40;;;461.40;2380.80;;;;;;4997472;28;20037;-84
2021/09/28 06:24:56;;;;;;;17.48;13.25;;;461.30;2380.80;;;;;;4996844;28;20061;-85
2021/09/28 06:27:26;;;;;;;23.80;14.70;;;461.20;2380.80;;;;;;4996782;28;20030;-86
2021/09/28 06:29:52;;;;;;;19.63;13.82;;;486.60;2380.80;;;;;;4996972;28;20034;-85
2021/09/28 06:32:19;;;;;;;18.60;14.73;;;461.20;2380.80;;;;;;4996806;28;20022;-85
2021/09/28 06:34:48;;;;;;;23.23;14.25;;;461.00;2380.80;;;;;;4996883;28;20500;-85
2021/09/28 06:37:14;;;;;;;17.70;14.50;;;461.30;2380.80;;;;;;4996653;28;20023;-86
2021/09/28 06:39:41;;;;;;;22.38;14.88;;;461.30;2380.80;;;;;;4996682;28;20030;-85
2021/09/28 06:42:07;;;;;;;25.85;15.52;;;461.30;2380.80;;;;;;4997786;28;20480;-85
2021/09/28 06:44:33;;;;;;;22.45;14.90;;;461.30;2380.80;;;;;;4996556;28;20385;-85
2021/09/28 06:46:59;;;;;;;20.23;14.52;;;461.40;2380.80;;;;;;4996356;28;20034;-85
2021/09/28 06:49:25;;;;;;;21.40;15.25;;;461.40;2380.80;;;;;;4980244;28;20026;-85
2021/09/28 06:51:51;;;;;;;18.35;14.20;;;461.50;2380.80;;;;;;4996364;28;20117;-85
2021/09/28 06:54:17;;;;;;;19.27;15.65;;;461.60;2380.80;;;;;;4996331;28;20153;-85
2021/09/28 06:56:43;;;;;;;19.85;13.80;;;461.70;2380.80;;;;;;4995950;28;20034;-85
2021/09/28 06:59:10;;;;;;;20.35;14.85;;;461.70;2380.80;;;;;;4995968;28;20065;-84
2021/09/28 07:01:37;;;;;;;23.17;14.48;;;486.40;2380.80;;;;;;4979901;28;20121;-84
2021/09/28 07:04:03;;;;;;;21.98;14.77;;;486.40;2380.80;;;;;;4996168;28;20031;-85
2021/09/28 07:06:30;;;;;;;23.60;14.13;;;461.70;2380.80;;;;;;4997123;28;20470;-84
2021/09/28 07:08:56;;;;;;;24.92;14.18;;;486.40;2380.80;;;;;;4996088;28;20031;-84
2021/09/28 07:11:21;;;;;;;21.45;14.30;;;486.40;2380.80;;;;;;4996187;28;20027;-85
2021/09/28 07:13:48;;;;;;;22.25;13.68;;;486.40;2380.80;;;;;;4995808;28;20035;-85
2021/09/28 07:16:14;;;;;;;24.58;13.38;;;486.50;2380.80;;;;;;4996210;28;20060;-84
2021/09/28 07:18:40;;;;;;;21.55;13.02;;;486.60;2380.80;;;;;;4995847;28;20041;-83
2021/09/28 07:21:06;;;;;;;20.42;14.38;;;486.70;2380.80;;;;;;4996654;28;20026;-87
2021/09/28 07:23:32;;;;;;;28.40;15.43;;;486.70;2380.80;;;;;;4995842;28;20031;-84
2021/09/28 07:25:58;;;;;;;19.35;14.18;;;486.80;2380.80;;;;;;4995747;28;20041;-87
2021/09/28 07:28:24;;;;;;;22.48;16.73;;;486.90;2380.80;;;;;;4995476;28;20050;-85
2021/09/28 07:30:50;;;;;;;23.13;16.05;;;486.80;2380.80;;;;;;4995363;28;20462;-85
2021/09/28 07:33:16;;;;;;;24.10;16.35;;;486.90;2380.80;;;;;;4995234;28;20038;-85
2021/09/28 07:35:45;;;;;;;19.88;14.88;;;487.00;2380.80;;;;;;4995385;28;20030;-85
2021/09/28 07:38:13;;;;;;;23.38;16.17;;;486.90;2380.80;;;;;;4995489;28;20084;-85
2021/09/28 07:40:41;;;;;;;32.58;15.75;;;487.00;2380.80;;;;;;4995333;28;20030;-85
2021/09/28 07:43:07;;;;;;;24.60;15.60;;;487.00;2380.80;;;;;;4995273;28;20054;-85
2021/09/28 07:45:33;;;;;;;22.08;15.57;;;487.10;2380.80;;;;;;4995296;28;20065;-85
2021/09/28 07:47:59;;;;;;;25.38;16.45;;;487.20;2380.80;;;;;;4995270;28;20138;-85
2021/09/28 07:50:25;;;;;;;21.92;16.08;;;487.30;2380.80;;;;;;4995369;28;20469;-85
2021/09/28 07:52:51;;;;;;;18.83;15.25;;;487.30;2380.80;;;;;;4995374;28;20041;-85
2021/09/28 07:55:17;;;;;;;20.90;14.55;;;512.00;2380.80;;;;;;4996382;28;20026;-85
2021/09/28 07:57:43;;;;;;;22.50;14.98;;;512.10;2380.80;;;;;;4994920;28;20064;-84
2021/09/28 08:00:10;;;;;;;17.73;14.07;;;512.30;2380.80;;;;;;4994913;28;20047;-84
2021/09/28 08:02:40;;;;;;;25.40;14.30;;;512.30;2380.80;;;;;;4995856;28;20029;-84
2021/09/28 08:05:08;;;;;;;20.75;14.48;;;512.20;2380.80;;;;;;4995028;28;20026;-84
2021/09/28 08:07:34;;;;;;;19.65;14.43;;;512.40;2380.80;;;;;;4994168;28;20092;-83
2021/09/28 08:10:00;;;;;;;20.92;14.38;;;512.40;2380.80;;;;;;4994424;28;20027;-84
2021/09/28 08:12:26;;;;;;;22.27;17.05;;;512.40;2380.80;;;;;;4994405;28;20034;-82
2021/09/28 08:14:53;;;;;;;17.30;12.73;;;512.40;2380.80;;;;;;4993961;28;20125;-83
2021/09/28 08:17:21;;;;;;;22.35;13.70;;;512.40;2380.80;;;;;;4994371;28;20033;-80
2021/09/28 08:19:49;;;;;;;21.10;12.82;;;512.50;2380.80;;;;;;4995207;28;20480;-79
2021/09/28 08:22:15;;;;;;;16.48;12.32;;;512.60;2380.80;;;;;;4995175;28;20050;-80
2021/09/28 08:24:43;;;;;;;15.02;11.88;;;512.80;2380.80;;;;;;4993880;28;20058;-79
2021/09/28 08:30:00;;;;;;;17.70;13.65;;;537.60;2406.40;;;;;;4995036;28;20139;-81
2021/09/28 08:32:27;;;;;;;20.08;14.65;;;537.80;2406.40;;;;;;4993728;28;20469;-82
2021/09/28 08:34:53;;;;;;;24.00;16.30;;;537.80;2406.40;;;;;;4993228;28;20401;-82
2021/09/28 08:37:19;;;;;;;19.05;13.68;;;537.80;2406.40;;;;;;4993884;28;20037;-84
2021/09/28 08:39:46;;;;;;;15.85;12.60;;;537.90;2406.40;;;;;;4993202;28;20042;-83
2021/09/28 08:42:13;;;;;;;18.50;15.45;;;537.90;2406.40;;;;;;4993729;28;20030;-85
2021/09/28 08:44:40;;;;;;;18.77;15.10;;;538.00;2406.40;;;;;;4993687;28;20037;-86
2021/09/28 08:47:06;;;;;;;18.05;14.50;;;538.10;2406.40;;;;;;4993699;28;20026;-84
2021/09/28 08:49:32;;;;;;;20.45;14.95;;;538.00;2406.40;;;;;;4994157;28;20466;-85
2021/09/28 08:52:02;;;;;;;18.73;15.98;;;538.10;2406.40;;;;;;4993765;28;20436;-83
2021/09/28 08:54:28;;;;;;;24.60;18.63;;;538.20;2406.40;;;;;;4993574;28;20034;-85
2021/09/28 08:56:53;;;;;;;22.55;17.25;;;538.30;2406.40;;;;;;4994531;28;20030;-87
2021/09/28 08:59:20;;;;;;;24.67;21.55;;;538.40;2406.40;;;;;;4995082;28;20031;-87
2021/09/28 09:01:57;;;;;;;31.60;21.83;;;538.50;2406.40;;;;;;4994519;28;20029;-85
2021/09/28 09:04:26;;;;;;;22.02;19.27;;;563.40;2432.00;;;;;;5010640;28;20054;-89
2021/09/28 09:06:54;;;;;;;23.75;18.63;;;563.60;2432.00;;;;;;4994656;28;20027;-87
2021/09/28 09:09:22;;;;;;;22.65;18.27;;;563.60;2432.00;;;;;;4993967;28;20030;-83
2021/09/28 09:11:50;;;;;;;21.08;18.02;;;563.80;2432.00;;;;;;4990700;28;20367;-83
2021/09/28 09:14:20;;;;;;;22.73;19.77;;;563.70;2432.00;;;;;;4993115;28;20089;-82
2021/09/28 09:16:50;;;;;;;23.52;19.65;;;563.70;2432.00;;;;;;4993117;28;20466;-83
2021/09/28 09:19:18;;;;;;;26.77;20.25;;;563.60;2432.00;;;;;;4992668;28;20058;-82
2021/09/28 09:21:45;;;;;;;21.13;18.88;;;563.60;2432.00;;;;;;4977110;28;20394;-83
2021/09/28 09:24:12;;;;;;;21.92;19.60;;;563.60;2432.00;;;;;;4994413;28;20457;-83
2021/09/28 09:26:45;;;;;;;24.55;21.35;;;563.60;2432.00;;;;;;4993014;28;20088;-82
2021/09/28 09:29:13;;;;;;;21.63;17.98;;;512.60;2380.80;;;;;;4993340;28;20093;-83
2021/09/28 09:31:51;;;;;;;20.40;18.30;;;563.60;2432.00;;;;;;4993351;28;20100;-81
2021/09/28 09:34:21;;;;;;;23.50;19.27;;;563.60;2432.00;;;;;;4993212;28;20085;-83
2021/09/28 09:36:58;;;;;;;22.38;20.08;;;563.60;2432.00;;;;;;4993575;28;20030;-83
2021/09/28 09:39:28;;;;;;;22.67;20.00;;;563.60;2432.00;;;;;;4993388;28;20034;-83
2021/09/28 09:42:07;;;;;;;22.73;19.10;;;563.60;2432.00;;;;;;4993308;28;20057;-83
2021/09/28 09:44:33;;;;;;;24.02;20.98;;;563.40;2432.00;;;;;;4994577;28;20031;-82
2021/09/28 09:47:02;;;;;;;23.55;19.63;;;563.40;2432.00;;;;;;4993240;28;20030;-83
2021/09/28 09:49:31;;;;;;;43.63;36.30;;;563.40;2432.00;;;;;;4997298;28;20034;-85
2021/09/28 09:52:03;;;;;;;27.20;24.40;;;563.50;2432.00;;;;;;5000040;28;20031;-86
2021/09/28 09:54:32;;;;;;;28.80;25.88;;;563.60;2432.00;;;;;;4997592;28;20054;-85
2021/09/28 09:57:09;;;;;;;27.00;23.45;;;563.60;2432.00;;;;;;4997470;28;20474;-90
2021/09/28 09:59:37;;;;;;;25.08;21.17;;;563.40;2432.00;;;;;;4994648;28;20073;-90
2021/09/28 10:02:04;;;;;;;25.30;22.48;;;563.40;2432.00;;;;;;4993592;28;20023;-85
2021/09/28 10:04:30;;;;;;;24.80;22.05;;;563.30;2432.00;;;;;;4993506;28;20037;-85
2021/09/28 10:06:56;;;;;;;13.10;8.73;;;563.20;2432.00;;;;;;4993533;28;20429;-85
2021/09/28 10:09:38;;;;;;;10.45;6.40;;;538.50;2406.40;;;;;;4993691;28;20026;-87
2021/09/28 10:12:06;;;;;;;7.70;5.90;;;537.80;2406.40;;;;;;4993406;28;20080;-85
2021/09/28 10:14:43;;;;;;;9.43;7.00;;;512.90;2380.80;;;;;;4993460;28;20287;-86
2021/09/28 10:17:21;;;;;;;10.73;7.28;;;512.80;2380.80;;;;;;4993453;28;20026;-85
2021/09/28 10:19:50;;;;;;;10.63;7.18;;;512.80;2380.80;;;;;;4994205;28;20027;-85
2021/09/28 10:22:38;;;;;;;7.50;5.32;;;512.80;2380.80;;;;;;4977380;28;20027;-85
2021/09/28 10:25:21;;;;;;;6.25;5.13;;;512.70;2380.80;;;;;;4976836;28;20030;-84
2021/09/28 10:27:57;;;;;;;8.32;5.68;;;512.60;2380.80;;;;;;4977204;28;20054;-86
2021/09/28 10:30:33;;;;;;;8.05;5.70;;;512.50;2380.80;;;;;;4976698;28;20054;-84
2021/09/28 10:33:00;;;;;;;8.55;5.53;;;512.60;2380.80;;;;;;4980475;28;20039;-85
2021/09/28 10:35:27;;;;;;;8.10;5.47;;;512.50;2380.80;;;;;;4996480;28;20173;-84
2021/09/28 10:38:00;;;;;;;11.38;5.88;;;512.50;2380.80;;;;;;4996381;28;20030;-84
2021/09/28 10:40:28;;;;;;;9.10;5.68;;;512.50;2380.80;;;;;;4996411;28;20034;-86
2021/09/28 10:43:01;;;;;;;10.65;7.78;;;512.50;2380.80;;;;;;4980385;28;20035;-89
2021/09/28 10:45:31;;;;;;;11.40;7.20;;;512.50;2380.80;;;;;;4996945;28;20070;-86
2021/09/28 10:47:59;;;;;;;14.60;9.68;;;512.50;2380.80;;;;;;4980270;28;20113;-84
2021/09/28 10:50:29;;;;;;;9.10;8.00;;;512.40;2380.80;;;;;;4996283;28;20034;-83
2021/09/28 10:52:57;;;;;;;8.45;6.97;;;512.50;2380.80;;;;;;4996325;28;20038;-86
2021/09/28 10:55:26;;;;;;;10.75;8.18;;;512.50;2380.80;;;;;;4996224;28;20374;-84
2021/09/28 10:57:55;;;;;;;10.68;8.20;;;512.90;2380.80;;;;;;4996103;28;20085;-84
2021/09/28 11:00:23;;;;;;;16.48;9.48;;;512.70;2380.80;;;;;;4980152;28;20033;-86
2021/09/28 11:02:56;;;;;;;16.77;11.82;;;512.80;2380.80;;;;;;4997323;28;20418;-84
2021/09/28 11:05:28;;;;;;;13.75;11.00;;;512.80;2380.80;;;;;;4996343;28;20474;-84
2021/09/28 11:07:55;;;;;;;10.13;8.32;;;512.90;2380.80;;;;;;4979768;28;20261;-85
2021/09/28 11:10:21;;;;;;;37.83;29.60;;;512.90;2380.80;;;;;;4995699;28;20037;-84
2021/09/28 11:12:46;;;;;;;12.38;10.70;;;537.60;2406.40;;;;;;4995587;28;20032;-82
2021/09/28 11:15:20;;;;;;;10.60;9.00;;;512.90;2380.80;;;;;;4995796;28;20031;-84
2021/09/28 11:17:46;;;;;;;10.77;8.93;;;512.90;2380.80;;;;;;4995424;28;20026;-84
2021/09/28 11:20:28;;;;;;;14.50;11.02;;;512.90;2380.80;;;;;;4995632;28;20077;-83
2021/09/28 11:23:07;;;;;;;9.93;8.43;;;512.90;2380.80;;;;;;4995956;28;20054;-85
2021/09/28 11:25:33;;;;;;;8.43;7.28;;;512.80;2380.80;;;;;;4995470;28;20093;-82
2021/09/28 11:28:11;;;;;;;8.75;7.47;;;512.80;2380.80;;;;;;4995512;28;20054;-88
2021/09/28 11:30:40;;;;;;;10.15;7.95;;;512.80;2380.80;;;;;;4996007;28;20026;-85
2021/09/28 11:33:08;;;;;;;9.00;8.10;;;512.80;2380.80;;;;;;4995778;28;20034;-85
2021/09/28 11:35:36;;;;;;;11.00;9.73;;;512.80;2380.80;;;;;;4995628;28;20030;-84
2021/09/28 11:38:04;;;;;;;12.57;8.20;;;512.80;2380.80;;;;;;4995257;28;20073;-87
2021/09/28 11:40:35;;;;;;;9.77;7.75;;;512.60;2380.80;;;;;;4995531;28;20378;-86
2021/09/28 11:43:21;;;;;;;7.63;6.82;;;512.70;2380.80;;;;;;4994689;28;20042;-86
2021/09/28 11:46:01;;;;;;;8.55;7.43;;;512.70;2380.80;;;;;;4996308;28;20033;-86
2021/09/28 11:48:28;;;;;;;10.73;9.27;;;512.70;2380.80;;;;;;4995334;28;20054;-86
2021/09/28 11:50:54;;;;;;;10.50;8.10;;;512.70;2380.80;;;;;;4995205;28;20096;-85
2021/09/28 11:53:20;;;;;;;10.02;8.43;;;512.70;2380.80;;;;;;4995105;28;20072;-86
2021/09/28 11:55:47;;;;;;;10.82;7.68;;;512.70;2380.80;;;;;;4995251;28;20462;-87
2021/09/28 11:58:13;;;;;;;10.27;8.05;;;512.70;2380.80;;;;;;4995462;28;20096;-84
2021/09/28 12:00:42;;;;;;;10.90;8.07;;;512.70;2380.80;;;;;;4995254;28;20023;-85
2021/09/28 12:03:09;;;;;;;10.57;8.50;;;512.80;2380.80;;;;;;4995139;28;20038;-85
2021/09/28 12:06:27;;;;;;;11.48;10.27;;;512.90;2380.80;;;;;;4995187;28;20026;-86
2021/09/28 12:08:25;;;;;;;19.40;15.98;;;512.90;2380.80;;;;;;4982055;28;20030;-84